Time;durP1;ratioP1;P1;durP2;ratioP2;P2;SDS_P1;SDS_P2;PMS_P1;PMS_P2;Temp;Humidity;BMP_temperature;BMP_pressure;BME280_temperature;BME280_humidity;BME280_pressure;Samples;Min_cycle;Max_cycle;Signal;HPM_P1;HPM_P2
2021/10/17 00:01:09;;;;;;;9.82;3.22;;;7.70;99.90;;;;;;12455801;28;20045;-84
2021/10/17 00:07:11;;;;;;;11.43;3.42;;;7.80;99.90;;;;;;12471185;28;20513;-84
2021/10/17 00:13:13;;;;;;;12.45;3.75;;;7.80;99.90;;;;;;12433087;28;20557;-86
2021/10/17 00:19:14;;;;;;;13.40;3.65;;;7.90;99.90;;;;;;12471258;28;20117;-86
2021/10/17 00:25:17;;;;;;;16.45;3.95;;;7.80;99.90;;;;;;12444339;28;20806;-86
2021/10/17 00:31:20;;;;;;;8.18;3.22;;;7.90;99.90;;;;;;12440450;28;20136;-86
2021/10/17 00:37:21;;;;;;;14.52;3.83;;;8.00;99.90;;;;;;12439972;28;20050;-86
2021/10/17 00:43:23;;;;;;;12.23;3.55;;;8.00;99.90;;;;;;12437010;28;20505;-83
2021/10/17 00:49:26;;;;;;;11.93;4.18;;;8.00;99.90;;;;;;12425433;28;20054;-86
2021/10/17 00:55:30;;;;;;;21.27;3.63;;;8.00;99.90;;;;;;12419701;28;20140;-85
2021/10/17 01:01:52;;;;;;;16.20;3.30;;;8.10;99.90;;;;;;12413016;28;20037;-84
2021/10/17 01:07:54;;;;;;;13.88;3.78;;;8.10;99.90;;;;;;12428176;28;20366;-85
2021/10/17 01:13:56;;;;;;;13.32;3.50;;;8.00;99.90;;;;;;12419341;28;20132;-85
2021/10/17 01:19:58;;;;;;;12.35;4.30;;;8.00;99.90;;;;;;12417103;28;20076;-87
2021/10/17 01:26:00;;;;;;;9.82;3.55;;;8.00;99.90;;;;;;12423883;28;20042;-83
2021/10/17 01:32:02;;;;;;;14.65;3.55;;;7.90;99.90;;;;;;12440689;28;20087;-86
2021/10/17 01:38:05;;;;;;;9.73;3.88;;;7.90;99.90;;;;;;12441407;28;20046;-84
2021/10/17 01:44:12;;;;;;;16.45;4.07;;;7.80;99.90;;;;;;12442961;28;20049;-85
2021/10/17 01:50:14;;;;;;;14.60;3.50;;;7.80;99.90;;;;;;12440241;28;20088;-86
2021/10/17 01:56:16;;;;;;;9.10;3.63;;;7.80;99.90;;;;;;12429516;28;20061;-85
2021/10/17 02:02:18;;;;;;;10.70;3.63;;;7.80;99.90;;;;;;12427884;28;20080;-86
2021/10/17 02:08:21;;;;;;;12.82;4.03;;;7.80;99.90;;;;;;12429301;28;20517;-85
2021/10/17 02:14:23;;;;;;;17.58;4.95;;;7.80;99.90;;;;;;12436756;28;20072;-84
2021/10/17 02:20:25;;;;;;;13.30;4.45;;;7.80;99.90;;;;;;12429317;28;20058;-86
2021/10/17 02:26:27;;;;;;;11.32;4.03;;;7.90;99.90;;;;;;12429741;28;20049;-86
2021/10/17 02:32:29;;;;;;;14.63;4.80;;;7.90;99.90;;;;;;12434699;28;20140;-84
2021/10/17 02:38:31;;;;;;;14.88;4.40;;;7.90;99.90;;;;;;12457328;28;20041;-85
2021/10/17 02:44:33;;;;;;;13.23;4.72;;;7.80;99.90;;;;;;12429992;28;20662;-86
2021/10/17 02:50:35;;;;;;;15.63;5.13;;;7.80;99.90;;;;;;12433275;28;20128;-84
2021/10/17 02:56:37;;;;;;;15.50;4.65;;;7.80;99.90;;;;;;12438951;28;20049;-83
2021/10/17 03:02:38;;;;;;;17.63;5.65;;;7.90;99.90;;;;;;12456545;28;20042;-85
2021/10/17 03:08:40;;;;;;;11.98;4.60;;;7.80;99.90;;;;;;12433736;28;20515;-85
2021/10/17 03:14:42;;;;;;;16.17;5.00;;;7.90;99.90;;;;;;12431076;28;20575;-86
2021/10/17 03:20:44;;;;;;;18.02;4.55;;;8.00;99.90;;;;;;12455041;28;20072;-85
2021/10/17 03:26:46;;;;;;;12.40;4.35;;;8.00;99.90;;;;;;12435194;28;20104;-84
2021/10/17 03:32:49;;;;;;;12.80;4.35;;;8.00;99.90;;;;;;12456112;28;20493;-85
2021/10/17 03:38:51;;;;;;;13.75;5.50;;;7.90;99.90;;;;;;12449476;28;20523;-86
2021/10/17 03:44:52;;;;;;;13.43;4.75;;;7.90;99.90;;;;;;12450403;28;20872;-84
2021/10/17 03:50:54;;;;;;;15.40;5.20;;;7.90;99.90;;;;;;12429179;28;20041;-85
2021/10/17 03:56:56;;;;;;;16.50;5.20;;;7.90;99.90;;;;;;12450848;28;20367;-85
2021/10/17 04:02:58;;;;;;;10.60;4.53;;;7.80;99.90;;;;;;12434442;28;20091;-86
2021/10/17 04:09:00;;;;;;;13.13;4.88;;;7.80;99.90;;;;;;12451545;28;20613;-83
2021/10/17 04:15:02;;;;;;;11.48;5.15;;;7.70;99.90;;;;;;12434999;28;20408;-83
2021/10/17 04:21:04;;;;;;;18.83;5.13;;;7.70;99.90;;;;;;12441669;28;20049;-85
2021/10/17 04:27:08;;;;;;;16.83;5.40;;;7.70;99.90;;;;;;12430616;28;20041;-84
2021/10/17 04:33:10;;;;;;;11.50;4.88;;;7.70;99.90;;;;;;12432094;28;20169;-83
2021/10/17 04:39:15;;;;;;;17.85;5.60;;;7.60;99.90;;;;;;12424781;28;20749;-83
2021/10/17 04:45:17;;;;;;;;;;;7.60;99.90;;;;;;12469817;28;20084;-84
2021/10/17 04:51:18;;;;;;;13.93;6.10;;;7.60;99.90;;;;;;12465120;28;20028;-86
2021/10/17 04:57:20;;;;;;;16.33;5.78;;;7.60;99.90;;;;;;12428874;28;20037;-84
2021/10/17 05:03:23;;;;;;;11.35;5.32;;;7.60;99.90;;;;;;12434027;28;20055;-84
2021/10/17 05:09:25;;;;;;;16.52;6.18;;;7.60;99.90;;;;;;12472585;28;20077;-84
2021/10/17 05:15:28;;;;;;;13.00;5.82;;;7.60;99.90;;;;;;12451089;28;20136;-86
2021/10/17 05:21:30;;;;;;;11.88;5.95;;;7.60;99.90;;;;;;12452295;28;20084;-86
2021/10/17 05:27:31;;;;;;;14.70;6.65;;;7.60;99.90;;;;;;12432703;28;20053;-85
2021/10/17 05:33:36;;;;;;;13.20;5.75;;;7.60;99.90;;;;;;12432389;28;20045;-84
2021/10/17 05:39:38;;;;;;;15.30;6.38;;;7.60;99.90;;;;;;12425598;28;20080;-85
2021/10/17 05:45:40;;;;;;;18.45;6.72;;;7.60;99.90;;;;;;12425657;28;20054;-85
2021/10/17 05:51:42;;;;;;;21.67;7.05;;;7.60;99.90;;;;;;12440226;28;20128;-83
2021/10/17 05:57:44;;;;;;;15.07;6.07;;;7.60;99.90;;;;;;12418847;28;20079;-83
2021/10/17 06:03:45;;;;;;;16.52;6.38;;;7.60;99.90;;;;;;12421246;28;20144;-84
2021/10/17 06:09:47;;;;;;;17.83;7.05;;;7.60;99.90;;;;;;12442343;28;20484;-83
2021/10/17 06:15:49;;;;;;;20.85;7.97;;;7.70;99.90;;;;;;12451398;28;20141;-83
2021/10/17 06:21:51;;;;;;;20.90;7.03;;;7.80;99.90;;;;;;12430478;28;20107;-85
2021/10/17 06:27:53;;;;;;;19.27;6.88;;;7.70;99.90;;;;;;12427376;28;20142;-84
2021/10/17 06:33:55;;;;;;;18.35;7.05;;;7.70;99.90;;;;;;12424795;28;20433;-85
2021/10/17 06:39:56;;;;;;;17.45;6.20;;;7.70;99.90;;;;;;12435087;28;20048;-83
2021/10/17 06:45:58;;;;;;;17.20;6.85;;;7.80;99.90;;;;;;12450312;28;20067;-85
2021/10/17 06:52:00;;;;;;;13.35;6.10;;;7.80;99.90;;;;;;12430881;28;20509;-85
2021/10/17 06:58:02;;;;;;;13.95;6.65;;;7.80;99.90;;;;;;12435908;28;20052;-83
2021/10/17 07:04:04;;;;;;;20.95;6.70;;;7.90;99.90;;;;;;12428746;28;20049;-84
2021/10/17 07:10:06;;;;;;;17.40;6.70;;;8.00;99.90;;;;;;12436176;28;20091;-84
2021/10/17 07:16:07;;;;;;;20.73;7.00;;;8.00;99.90;;;;;;12425600;28;20143;-84
2021/10/17 07:22:09;;;;;;;14.82;6.28;;;8.20;99.90;;;;;;12437771;28;20677;-83
2021/10/17 07:28:11;;;;;;;14.68;6.18;;;8.20;99.90;;;;;;12428432;28;20789;-84
2021/10/17 07:34:14;;;;;;;19.55;6.95;;;8.30;99.90;;;;;;12424305;28;20565;-85
2021/10/17 07:40:19;;;;;;;17.83;6.82;;;8.40;99.90;;;;;;12432268;28;20053;-84
2021/10/17 07:46:21;;;;;;;15.43;6.80;;;8.40;99.90;;;;;;12445896;28;20099;-85
2021/10/17 07:52:23;;;;;;;17.25;6.95;;;8.50;99.90;;;;;;12447270;28;20129;-82
2021/10/17 07:58:27;;;;;;;17.42;6.75;;;8.60;99.90;;;;;;12433288;28;20485;-85
2021/10/17 08:04:29;;;;;;;;;;;8.60;99.90;;;;;;12470898;28;20080;-84
2021/10/17 08:10:31;;;;;;;20.33;7.57;;;8.70;99.90;;;;;;12458340;28;19946;-84
2021/10/17 08:16:33;;;;;;;14.98;6.80;;;8.80;99.90;;;;;;12433025;28;20053;-84
2021/10/17 08:22:35;;;;;;;16.38;6.70;;;8.80;99.90;;;;;;12427291;28;20045;-84
2021/10/17 08:28:37;;;;;;;16.90;7.03;;;8.80;99.90;;;;;;12431981;28;20103;-84
2021/10/17 08:34:39;;;;;;;17.33;7.20;;;8.80;99.90;;;;;;12429805;28;20452;-85
2021/10/17 08:40:41;;;;;;;18.63;6.90;;;8.80;99.90;;;;;;12432775;28;20107;-83
2021/10/17 08:46:44;;;;;;;17.02;7.05;;;9.00;99.90;;;;;;12426834;28;20497;-85
2021/10/17 08:52:46;;;;;;;16.30;7.20;;;9.10;99.90;;;;;;12424979;28;20092;-84
2021/10/17 08:58:48;;;;;;;19.63;6.45;;;9.20;99.90;;;;;;12428055;28;20065;-85
2021/10/17 09:05:03;;;;;;;16.10;6.63;;;9.30;99.90;;;;;;12432158;28;20127;-86
2021/10/17 09:11:05;;;;;;;;;;;9.40;99.90;;;;;;12435033;28;20033;-85
2021/10/17 09:17:07;;;;;;;19.95;7.03;;;9.50;99.90;;;;;;12449615;28;20063;-84
2021/10/17 09:23:08;;;;;;;17.00;6.95;;;9.70;99.90;;;;;;12426118;28;20045;-84
2021/10/17 09:29:28;;;;;;;18.67;7.22;;;9.80;99.90;;;;;;12429195;28;20053;-84
2021/10/17 09:35:31;;;;;;;19.85;7.20;;;9.80;99.90;;;;;;12431206;28;20050;-84
2021/10/17 09:41:34;;;;;;;19.27;6.68;;;9.90;99.90;;;;;;12425646;28;20084;-83
2021/10/17 09:47:39;;;;;;;18.37;6.27;;;10.10;99.90;;;;;;12431567;28;20058;-85
2021/10/17 09:53:48;;;;;;;17.02;5.80;;;10.10;99.90;;;;;;12450080;28;20095;-84
2021/10/17 09:59:50;;;;;;;15.35;5.70;;;10.20;99.90;;;;;;12448731;28;20046;-85
2021/10/17 10:05:53;;;;;;;18.23;5.68;;;10.40;99.90;;;;;;12428476;28;20124;-84
2021/10/17 10:11:56;;;;;;;14.68;5.28;;;10.60;99.90;;;;;;12436982;28;20112;-84
2021/10/17 10:17:58;;;;;;;13.48;5.82;;;10.70;99.90;;;;;;12440412;28;20049;-83
2021/10/17 10:24:06;;;;;;;15.80;5.45;;;10.80;99.90;;;;;;12429214;28;20041;-85
2021/10/17 10:30:41;;;;;;;15.50;5.60;;;10.90;99.90;;;;;;12459057;28;20053;-85
2021/10/17 10:36:45;;;;;;;15.68;5.75;;;10.90;99.90;;;;;;12392405;28;20136;-83
2021/10/17 10:42:50;;;;;;;17.20;6.10;;;11.00;99.90;;;;;;12442208;28;20111;-85
2021/10/17 10:48:52;;;;;;;19.13;7.15;;;11.10;99.90;;;;;;12457830;28;20459;-85
2021/10/17 10:54:56;;;;;;;21.40;6.40;;;11.10;99.90;;;;;;12466947;28;20037;-84
2021/10/17 11:00:59;;;;;;;16.15;5.88;;;11.20;99.90;;;;;;12435568;28;20041;-85
2021/10/17 11:07:30;;;;;;;15.30;5.53;;;11.40;99.90;;;;;;12434945;28;20556;-85
2021/10/17 11:13:33;;;;;;;13.35;4.82;;;11.30;99.90;;;;;;12424271;28;20129;-85
2021/10/17 11:19:35;;;;;;;15.32;5.32;;;11.30;99.90;;;;;;12431925;28;20045;-86
2021/10/17 11:25:37;;;;;;;14.60;5.38;;;11.40;99.90;;;;;;12446733;28;20045;-85
2021/10/17 11:31:40;;;;;;;13.75;4.90;;;11.50;99.90;;;;;;12435446;28;20080;-84
2021/10/17 11:37:50;;;;;;;12.95;7.05;;;11.70;99.90;;;;;;12428122;28;20083;-84
2021/10/17 11:43:56;;;;;;;11.60;5.28;;;11.80;99.90;;;;;;12431268;28;20628;-84
2021/10/17 11:50:01;;;;;;;11.68;5.68;;;11.90;99.90;;;;;;12422717;28;20118;-84
2021/10/17 11:56:08;;;;;;;12.48;5.13;;;11.90;99.90;;;;;;12447216;28;20061;-84
2021/10/17 12:02:33;;;;;;;11.65;4.90;;;11.80;99.90;;;;;;12447011;28;20599;-86
2021/10/17 12:08:35;;;;;;;13.05;4.32;;;11.70;99.90;;;;;;12422962;28;20099;-85
2021/10/17 12:14:37;;;;;;;15.77;4.70;;;11.60;99.90;;;;;;12428152;28;20045;-84
2021/10/17 12:20:39;;;;;;;9.73;3.67;;;11.60;99.90;;;;;;12429973;28;20141;-85
2021/10/17 12:26:54;;;;;;;12.82;3.22;;;11.60;99.90;;;;;;12446463;28;20111;-84
2021/10/17 12:32:56;;;;;;;;;;;11.60;99.90;;;;;;12448457;28;20056;-84
2021/10/17 12:39:00;;;;;;;14.18;5.15;;;11.60;99.90;;;;;;12419610;28;19995;-85
2021/10/17 12:45:11;;;;;;;11.30;4.30;;;11.50;99.90;;;;;;12419330;28;20049;-85
2021/10/17 12:51:32;;;;;;;12.45;4.30;;;11.60;99.90;;;;;;12440277;28;20135;-85
2021/10/17 12:57:34;;;;;;;11.52;5.32;;;11.70;99.90;;;;;;12428951;28;20048;-85
2021/10/17 13:03:36;;;;;;;10.43;4.68;;;11.70;99.90;;;;;;12460123;28;20060;-84
2021/10/17 13:09:50;;;;;;;14.80;4.25;;;11.60;99.90;;;;;;12424927;28;20088;-84
2021/10/17 13:15:55;;;;;;;13.05;4.97;;;11.70;99.90;;;;;;12414338;28;20156;-84
2021/10/17 13:21:57;;;;;;;13.68;4.90;;;11.60;99.90;;;;;;12429096;28;20045;-84
2021/10/17 13:28:00;;;;;;;13.75;5.07;;;11.60;99.90;;;;;;12445735;28;21776;-84
2021/10/17 13:34:02;;;;;;;15.13;5.00;;;11.60;99.90;;;;;;12447929;28;20390;-85
2021/10/17 13:40:06;;;;;;;13.63;4.93;;;11.50;99.90;;;;;;12426571;28;20049;-86
2021/10/17 13:46:07;;;;;;;11.85;5.55;;;11.50;99.90;;;;;;12429263;28;20561;-84
2021/10/17 13:52:09;;;;;;;9.82;4.75;;;11.50;99.90;;;;;;12414940;28;20554;-85
2021/10/17 13:58:11;;;;;;;15.82;5.43;;;11.50;99.90;;;;;;12408130;28;20045;-85
2021/10/17 14:04:13;;;;;;;12.32;4.68;;;11.40;99.90;;;;;;12430306;28;20488;-84
2021/10/17 14:10:15;;;;;;;13.35;4.80;;;11.40;99.90;;;;;;12402784;28;20636;-85
2021/10/17 14:16:18;;;;;;;12.65;4.93;;;11.40;99.90;;;;;;12439996;28;20049;-84
2021/10/17 14:22:20;;;;;;;11.60;5.03;;;11.30;99.90;;;;;;12426774;28;20076;-84
2021/10/17 14:28:22;;;;;;;12.38;4.72;;;11.30;99.90;;;;;;12438275;28;20164;-84
2021/10/17 14:34:24;;;;;;;10.68;5.07;;;11.30;99.90;;;;;;12450367;28;20845;-84
2021/10/17 14:40:26;;;;;;;13.90;5.93;;;11.30;99.90;;;;;;12440150;28;20327;-84
2021/10/17 14:46:28;;;;;;;13.77;5.38;;;11.30;99.90;;;;;;12421548;28;20069;-86
2021/10/17 14:52:30;;;;;;;14.88;5.70;;;11.30;99.90;;;;;;12410598;28;20058;-85
2021/10/17 14:58:33;;;;;;;17.33;5.55;;;11.30;99.90;;;;;;12397009;28;20046;-85
2021/10/17 15:04:35;;;;;;;13.07;5.18;;;11.30;99.90;;;;;;12400348;28;20073;-85
2021/10/17 15:10:37;;;;;;;11.45;5.13;;;11.40;99.90;;;;;;12406086;28;20053;-84
2021/10/17 15:16:41;;;;;;;17.45;6.10;;;11.30;99.90;;;;;;12392842;28;20513;-84
2021/10/17 15:22:43;;;;;;;;;;;11.20;99.90;;;;;;12389892;28;20053;-85
2021/10/17 15:28:45;;;;;;;11.15;5.68;;;11.20;99.90;;;;;;12408328;28;19925;-84
2021/10/17 15:34:47;;;;;;;13.45;5.47;;;11.10;99.90;;;;;;12398316;28;20042;-84
2021/10/17 15:40:49;;;;;;;11.68;5.10;;;11.10;99.90;;;;;;12394350;28;20045;-84
2021/10/17 15:46:51;;;;;;;12.45;5.78;;;11.00;99.90;;;;;;12388655;28;20127;-84
2021/10/17 15:52:54;;;;;;;10.57;5.45;;;11.00;99.90;;;;;;12397463;28;20053;-86
2021/10/17 15:58:56;;;;;;;11.45;5.00;;;10.90;99.90;;;;;;12400219;28;20405;-85
2021/10/17 16:04:58;;;;;;;15.27;5.32;;;10.80;99.90;;;;;;12402061;28;20042;-85
2021/10/17 16:11:00;;;;;;;11.25;5.45;;;10.80;99.90;;;;;;12403383;28;20049;-85
2021/10/17 16:17:04;;;;;;;14.00;6.07;;;10.70;99.90;;;;;;12395177;28;20441;-84
2021/10/17 16:23:06;;;;;;;14.80;6.10;;;10.70;99.90;;;;;;12389120;28;20050;-84
2021/10/17 16:29:08;;;;;;;19.30;6.38;;;10.60;99.90;;;;;;12399280;28;20645;-84
2021/10/17 16:35:10;;;;;;;11.35;6.20;;;10.50;99.90;;;;;;12387048;28;20565;-84
2021/10/17 16:41:12;;;;;;;13.13;6.63;;;10.50;99.90;;;;;;12384045;28;20050;-86
2021/10/17 16:47:14;;;;;;;15.45;6.40;;;10.50;99.90;;;;;;12388393;28;20945;-85
2021/10/17 16:53:16;;;;;;;11.30;5.85;;;10.50;99.90;;;;;;12392649;28;20041;-85
2021/10/17 16:59:17;;;;;;;16.15;7.03;;;10.40;99.90;;;;;;12404322;28;20370;-85
2021/10/17 17:05:19;;;;;;;14.43;7.15;;;10.40;99.90;;;;;;12404697;28;20087;-87
2021/10/17 17:11:22;;;;;;;16.02;6.18;;;10.40;99.90;;;;;;12395791;28;20052;-85
2021/10/17 17:17:24;;;;;;;14.35;5.95;;;10.60;99.90;;;;;;12399063;28;20049;-86
2021/10/17 17:23:26;;;;;;;11.00;6.15;;;10.50;99.90;;;;;;12393881;28;20115;-86
2021/10/17 17:29:28;;;;;;;11.85;5.82;;;10.50;99.90;;;;;;12386626;28;20058;-86
2021/10/17 17:35:30;;;;;;;9.98;5.18;;;10.50;99.90;;;;;;12390778;28;20061;-86
2021/10/17 17:41:32;;;;;;;10.25;4.97;;;10.50;99.90;;;;;;12398127;28;20042;-86
2021/10/17 17:47:34;;;;;;;8.82;4.70;;;10.60;99.90;;;;;;12396105;28;20061;-85
2021/10/17 17:53:36;;;;;;;9.82;4.97;;;10.50;99.90;;;;;;12393553;28;20042;-85
2021/10/17 17:59:37;;;;;;;8.35;4.80;;;10.50;99.90;;;;;;12391433;28;20057;-86
2021/10/17 18:05:39;;;;;;;9.60;4.75;;;10.50;99.90;;;;;;12404291;28;20855;-86
2021/10/17 18:11:41;;;;;;;11.23;5.20;;;10.50;99.90;;;;;;12398378;28;20067;-86
2021/10/17 18:17:50;;;;;;;12.00;4.45;;;10.60;99.90;;;;;;12395965;28;20050;-86
2021/10/17 18:23:52;;;;;;;9.18;4.78;;;10.50;99.90;;;;;;12393919;28;20432;-86
2021/10/17 18:29:54;;;;;;;7.95;4.20;;;10.60;99.90;;;;;;12392360;28;20042;-84
2021/10/17 18:36:01;;;;;;;13.35;4.78;;;10.60;99.90;;;;;;12395471;28;20112;-86
2021/10/17 18:42:07;;;;;;;9.95;4.43;;;10.70;99.90;;;;;;12397036;28;20049;-84
2021/10/17 18:48:09;;;;;;;16.42;5.15;;;10.70;99.90;;;;;;12431293;28;20603;-85
2021/10/17 18:54:14;;;;;;;9.77;4.68;;;10.70;99.90;;;;;;12423797;28;21983;-85
2021/10/17 19:00:18;;;;;;;12.45;4.47;;;10.80;99.90;;;;;;12440547;28;20053;-86
2021/10/17 19:06:20;;;;;;;10.65;4.20;;;10.80;99.90;;;;;;12425846;28;20049;-85
2021/10/17 19:12:22;;;;;;;9.82;3.92;;;10.80;99.90;;;;;;12418244;28;20053;-84
2021/10/17 19:18:24;;;;;;;13.48;4.55;;;10.70;99.90;;;;;;12414566;28;20054;-84
2021/10/17 19:24:25;;;;;;;9.82;3.80;;;10.70;99.90;;;;;;12426695;28;20050;-86
2021/10/17 19:30:28;;;;;;;10.43;3.72;;;10.70;99.90;;;;;;12430695;28;20104;-85
2021/10/17 19:36:30;;;;;;;10.88;3.80;;;10.80;99.90;;;;;;12427618;28;20049;-84
2021/10/17 19:42:32;;;;;;;12.93;3.97;;;10.70;99.90;;;;;;12420612;28;20057;-85
2021/10/17 19:48:35;;;;;;;7.72;3.22;;;10.70;99.90;;;;;;12428012;28;20073;-86
2021/10/17 19:54:37;;;;;;;7.60;3.58;;;10.70;99.90;;;;;;12437284;28;20061;-87
2021/10/17 20:00:39;;;;;;;11.20;3.67;;;10.70;99.90;;;;;;12444985;28;20592;-85
2021/10/17 20:06:42;;;;;;;10.73;3.50;;;10.60;99.90;;;;;;12426613;28;20053;-85
2021/10/17 20:12:44;;;;;;;8.63;3.20;;;10.60;99.90;;;;;;12436444;28;20445;-84
2021/10/17 20:18:46;;;;;;;9.32;3.10;;;10.60;99.90;;;;;;12446404;28;20176;-85
2021/10/17 20:24:48;;;;;;;6.57;3.28;;;10.60;99.90;;;;;;12425048;28;20045;-86
2021/10/17 20:30:51;;;;;;;9.82;3.55;;;10.60;99.90;;;;;;12428064;28;20038;-86
2021/10/17 20:36:55;;;;;;;8.13;3.33;;;10.50;99.90;;;;;;12439951;28;20042;-85
2021/10/17 20:42:56;;;;;;;7.70;3.33;;;10.50;99.90;;;;;;12428877;28;20068;-85
2021/10/17 20:48:58;;;;;;;10.52;3.58;;;10.50;99.90;;;;;;12423801;28;20578;-85
2021/10/17 20:55:00;;;;;;;9.52;3.53;;;10.50;99.90;;;;;;12441759;28;20053;-86
2021/10/17 21:01:02;;;;;;;7.85;3.75;;;10.60;99.90;;;;;;12424743;28;20045;-86
2021/10/17 21:07:04;;;;;;;10.88;3.20;;;10.70;99.90;;;;;;12419548;28;20523;-85
2021/10/17 21:13:07;;;;;;;10.32;4.03;;;10.60;99.90;;;;;;12441167;28;20049;-85
2021/10/17 21:19:09;;;;;;;8.65;3.50;;;10.50;99.90;;;;;;12421590;28;20890;-86
2021/10/17 21:25:13;;;;;;;12.13;3.80;;;10.50;99.90;;;;;;12425416;28;20049;-84
2021/10/17 21:31:15;;;;;;;9.98;3.67;;;10.50;99.90;;;;;;12439559;28;20045;-86
2021/10/17 21:37:17;;;;;;;11.25;3.90;;;10.50;99.90;;;;;;12419595;28;20042;-84
2021/10/17 21:43:21;;;;;;;9.82;3.67;;;10.50;99.90;;;;;;12420527;28;20065;-85
2021/10/17 21:49:24;;;;;;;8.48;3.88;;;10.50;99.90;;;;;;12434870;28;20054;-85
2021/10/17 21:55:26;;;;;;;9.98;3.95;;;10.50;99.90;;;;;;12430969;28;20052;-84
2021/10/17 22:01:28;;;;;;;8.57;3.78;;;10.50;99.90;;;;;;12427105;28;20619;-85
2021/10/17 22:07:32;;;;;;;8.82;4.05;;;10.50;99.90;;;;;;12413779;28;20057;-85
2021/10/17 22:13:34;;;;;;;10.27;4.32;;;10.40;99.90;;;;;;12434821;28;20151;-86
2021/10/17 22:19:36;;;;;;;11.73;4.15;;;10.40;99.90;;;;;;12414317;28;20053;-86
2021/10/17 22:25:38;;;;;;;9.10;4.20;;;10.30;99.90;;;;;;12415148;28;20091;-86
2021/10/17 22:31:40;;;;;;;6.85;3.70;;;10.30;99.90;;;;;;12413703;28;20555;-87
2021/10/17 22:37:41;;;;;;;8.63;4.55;;;10.30;99.90;;;;;;12413555;28;20053;-85
2021/10/17 22:43:43;;;;;;;8.35;4.22;;;10.30;99.90;;;;;;12418146;28;20828;-85
2021/10/17 22:49:45;;;;;;;10.30;4.10;;;10.30;99.90;;;;;;12441185;28;20728;-85
2021/10/17 22:55:47;;;;;;;10.10;4.30;;;10.20;99.90;;;;;;12451987;28;20102;-85
2021/10/17 23:01:50;;;;;;;10.43;4.18;;;10.20;99.90;;;;;;12430122;28;20136;-83
2021/10/17 23:07:52;;;;;;;9.38;4.03;;;10.10;99.90;;;;;;12424795;28;20057;-86
2021/10/17 23:13:54;;;;;;;8.23;4.10;;;10.10;99.90;;;;;;12418319;28;20046;-85
2021/10/17 23:19:58;;;;;;;12.52;4.53;;;10.20;99.90;;;;;;12426352;28;20049;-84
2021/10/17 23:25:59;;;;;;;16.25;4.95;;;10.10;99.90;;;;;;12444711;28;20413;-85
2021/10/17 23:32:01;;;;;;;9.63;3.97;;;10.10;99.90;;;;;;12429716;28;20563;-85
2021/10/17 23:38:03;;;;;;;8.27;4.20;;;10.10;99.90;;;;;;12443594;28;20654;-86
2021/10/17 23:44:05;;;;;;;9.75;4.15;;;10.10;99.90;;;;;;12422948;28;20700;-86
2021/10/17 23:50:08;;;;;;;9.60;4.30;;;10.00;99.90;;;;;;12427788;28;20049;-84
2021/10/17 23:56:10;;;;;;;7.35;3.58;;;10.10;99.90;;;;;;12448742;28;20056;-84
